createdAt,value
2018-03-07T00:00:28.829Z,82.80
2018-03-07T00:02:58.598Z,84.45
2018-03-07T00:05:28.403Z,88.47
2018-03-07T00:07:58.999Z,92.20
2018-03-07T00:10:28.778Z,92.97
2018-03-07T00:12:58.614Z,87.88
2018-03-07T00:15:28.622Z,87.00
2018-03-07T00:17:58.136Z,78.95
2018-03-07T00:20:27.906Z,94.30
2018-03-07T00:22:58.477Z,87.68
2018-03-07T00:25:28.247Z,85.60
2018-03-07T00:27:58.860Z,91.40
2018-03-07T00:30:29.421Z,92.90
2018-03-07T00:32:59.233Z,91.07
2018-03-07T00:35:29.008Z,91.22
2018-03-07T00:37:58.837Z,86.12
2018-03-07T00:40:29.398Z,91.15
2018-03-07T00:42:59.213Z,86.68
2018-03-07T00:45:28.994Z,94.57
2018-03-07T00:47:59.557Z,83.62
2018-03-07T00:50:29.374Z,89.07
2018-03-07T00:52:59.179Z,89.85
2018-03-07T00:55:28.956Z,86.53
2018-03-07T00:57:59.513Z,87.82
2018-03-07T01:00:29.453Z,92.50
2018-03-07T01:02:59.236Z,95.07
2018-03-07T01:05:29.068Z,92.37
2018-03-07T01:07:59.806Z,90.75
2018-03-07T01:10:29.721Z,100.32
2018-03-07T01:12:59.533Z,89.60
2018-03-07T01:15:29.350Z,94.47
2018-03-07T01:17:59.385Z,102.12
2018-03-07T01:20:29.230Z,102.95
2018-03-07T01:22:59.012Z,96.00
2018-03-07T01:25:29.332Z,93.62
2018-03-07T01:28:00.845Z,99.70
2018-03-07T01:30:31.383Z,96.68
2018-03-07T01:33:01.209Z,90.47
2018-03-07T01:35:31.023Z,97.88
2018-03-07T01:38:00.808Z,89.57
2018-03-07T01:40:30.631Z,92.03
2018-03-07T01:43:00.410Z,96.82
2018-03-07T01:45:30.223Z,96.25
2018-03-07T01:48:00.012Z,98.60
2018-03-07T01:50:30.331Z,98.35
2018-03-07T01:53:00.121Z,104.10
2018-03-07T01:55:29.937Z,92.65
2018-03-07T01:57:59.741Z,98.32
2018-03-07T02:00:29.553Z,101.07
2018-03-07T02:02:59.329Z,107.63
2018-03-07T02:05:29.146Z,98.55
2018-03-07T02:07:59.697Z,95.05
2018-03-07T02:10:29.526Z,101.38
2018-03-07T02:12:59.429Z,106.43
2018-03-07T02:15:29.247Z,96.80
2018-03-07T02:17:59.394Z,108.15
2018-03-07T02:20:29.183Z,100.00
2018-03-07T02:22:59.039Z,107.80
2018-03-07T02:25:28.863Z,116.10
2018-03-07T02:27:58.656Z,111.80
2018-03-07T02:30:28.590Z,98.20
2018-03-07T02:32:58.174Z,105.35
2018-03-07T02:35:27.963Z,110.78
2018-03-07T02:37:57.518Z,105.80
2018-03-07T02:40:28.060Z,106.65
2018-03-07T02:42:58.649Z,108.22
2018-03-07T02:45:28.452Z,109.43
2018-03-07T02:47:58.303Z,106.47
2018-03-07T02:50:27.756Z,105.15
2018-03-07T02:52:57.602Z,108.20
2018-03-07T02:55:27.386Z,109.25
2018-03-07T02:57:56.958Z,115.07
2018-03-07T03:00:26.748Z,112.10
2018-03-07T03:02:56.661Z,107.63
2018-03-07T03:05:26.454Z,114.25
2018-03-07T03:07:56.270Z,115.78
2018-03-07T03:10:26.588Z,105.68
2018-03-07T03:12:56.387Z,103.10
2018-03-07T03:15:26.213Z,105.45
2018-03-07T03:17:55.663Z,109.20
2018-03-07T03:20:26.250Z,106.35
2018-03-07T03:22:56.038Z,112.40
2018-03-07T03:25:25.881Z,100.45
2018-03-07T03:27:55.732Z,100.57
2018-03-07T03:30:26.339Z,106.95
2018-03-07T03:32:57.683Z,98.47
2018-03-07T03:35:27.506Z,98.80
2018-03-07T03:37:57.336Z,92.93
2018-03-07T03:40:27.900Z,101.93
2018-03-07T03:42:57.714Z,108.35
2018-03-07T03:45:27.544Z,96.03
2018-03-07T03:47:58.138Z,96.65
2018-03-07T03:50:28.714Z,99.05
2018-03-07T03:52:58.505Z,101.78
2018-03-07T03:55:28.404Z,102.20
2018-03-07T03:57:57.902Z,98.15
2018-03-07T04:00:27.722Z,107.10
2018-03-07T04:02:57.512Z,100.00
2018-03-07T04:05:28.123Z,101.57
2018-03-07T04:07:59.404Z,103.72
2018-03-07T04:10:29.232Z,104.30
2018-03-07T04:12:59.031Z,104.55
2018-03-07T04:15:28.849Z,103.45
2018-03-07T04:17:58.638Z,189.25
2018-03-07T04:20:29.240Z,116.20
2018-03-07T04:22:59.008Z,103.03
2018-03-07T04:25:29.035Z,107.97
2018-03-07T04:27:59.042Z,105.93
2018-03-07T04:30:28.813Z,91.10
2018-03-07T04:32:58.620Z,104.82
2018-03-07T04:35:28.422Z,106.53
2018-03-07T04:37:58.213Z,101.80
2018-03-07T04:40:28.027Z,104.85
2018-03-07T04:42:57.810Z,104.03
2018-03-07T04:45:27.618Z,103.43
2018-03-07T04:47:57.385Z,105.50
2018-03-07T04:50:27.166Z,97.10
2018-03-07T04:52:57.005Z,101.25
2018-03-07T04:55:26.781Z,96.28
2018-03-07T04:57:56.693Z,102.95
2018-03-07T05:00:26.530Z,99.20
2018-03-07T05:02:56.377Z,98.50
2018-03-07T05:05:26.174Z,104.30
2018-03-07T05:07:56.030Z,112.07
2018-03-07T05:10:26.592Z,101.00
2018-03-07T05:12:56.456Z,103.87
2018-03-07T05:15:27.005Z,217.40
2018-03-07T05:17:56.816Z,156.65
2018-03-07T05:20:26.598Z,106.12
2018-03-07T05:22:56.144Z,102.38
2018-03-07T05:25:25.934Z,112.18
2018-03-07T05:27:56.541Z,113.70
2018-03-07T05:30:26.401Z,113.55
2018-03-07T05:32:56.200Z,111.07
2018-03-07T05:35:26.769Z,101.22
2018-03-07T05:37:56.550Z,102.75
2018-03-07T05:40:26.400Z,102.62
2018-03-07T05:42:56.219Z,105.95
2018-03-07T05:45:26.213Z,118.18
2018-03-07T05:47:56.017Z,106.50
2018-03-07T05:50:25.821Z,98.18
2018-03-07T05:52:55.659Z,106.25
2018-03-07T05:55:25.449Z,101.87
2018-03-07T05:57:55.254Z,109.05
2018-03-07T06:00:25.038Z,109.68
2018-03-07T06:02:54.854Z,102.28
2018-03-07T06:05:25.538Z,103.03
2018-03-07T06:07:55.330Z,103.05
2018-03-07T06:10:25.161Z,103.85
2018-03-07T06:12:54.938Z,112.53
2018-03-07T06:15:25.571Z,105.25
2018-03-07T06:17:55.997Z,112.40
2018-03-07T06:20:26.539Z,132.70
2018-03-07T06:22:56.576Z,126.47
2018-03-07T06:25:26.435Z,108.25
2018-03-07T06:27:56.242Z,114.75
2018-03-07T06:30:26.080Z,107.63
2018-03-07T06:32:56.643Z,107.07
2018-03-07T06:35:26.456Z,110.63
2018-03-07T06:37:56.300Z,106.80
2018-03-07T06:40:26.109Z,108.25
2018-03-07T06:42:56.062Z,106.10
2018-03-07T06:45:26.838Z,104.10
2018-03-07T06:47:56.696Z,94.95
2018-03-07T06:50:26.499Z,101.60
2018-03-07T06:52:56.810Z,100.78
2018-03-07T06:55:26.643Z,114.37
2018-03-07T06:57:56.622Z,111.88
2018-03-07T07:00:26.450Z,105.65
2018-03-07T07:02:56.443Z,109.65
2018-03-07T07:05:26.291Z,115.10
2018-03-07T07:07:56.302Z,127.62
2018-03-07T07:10:26.070Z,118.70
2018-03-07T07:12:56.169Z,115.05
2018-03-07T07:15:26.757Z,122.87
2018-03-07T07:17:56.524Z,118.50
2018-03-07T07:20:26.460Z,117.10
2018-03-07T07:22:56.282Z,112.97
2018-03-07T07:25:26.149Z,119.40
2018-03-07T07:27:55.932Z,116.47
2018-03-07T07:30:26.018Z,126.03
2018-03-07T07:32:55.947Z,122.78
2018-03-07T07:35:25.716Z,130.60
2018-03-07T07:37:56.279Z,124.07
2018-03-07T07:40:26.068Z,113.90
2018-03-07T07:42:55.902Z,117.07
2018-03-07T07:45:25.682Z,99.82
2018-03-07T07:47:56.280Z,110.28
2018-03-07T07:50:25.879Z,101.65
2018-03-07T07:52:56.508Z,102.60
2018-03-07T07:55:25.973Z,106.87
2018-03-07T07:57:55.792Z,104.03
2018-03-07T08:00:25.645Z,110.90
2018-03-07T08:02:55.430Z,107.63
2018-03-07T08:05:25.244Z,105.97
2018-03-07T08:07:55.045Z,108.53
2018-03-07T08:10:24.865Z,112.60
2018-03-07T08:12:54.636Z,106.10
2018-03-07T08:15:24.882Z,105.53
2018-03-07T08:17:54.673Z,122.07
2018-03-07T08:20:25.270Z,113.90
2018-03-07T08:22:55.039Z,111.70
2018-03-07T08:25:24.971Z,107.30
2018-03-07T08:27:54.795Z,98.90
2018-03-07T08:30:24.699Z,108.90
2018-03-07T08:32:54.529Z,111.43
2018-03-07T08:35:24.352Z,102.20
2018-03-07T08:37:54.126Z,98.80
2018-03-07T08:40:23.948Z,101.22
2018-03-07T08:42:54.001Z,97.82
2018-03-07T08:45:23.775Z,102.62
2018-03-07T08:47:53.603Z,105.35
2018-03-07T08:50:23.415Z,102.38
2018-03-07T08:52:53.191Z,95.20
2018-03-07T08:55:23.774Z,95.32
2018-03-07T08:57:53.548Z,90.75
2018-03-07T09:00:23.349Z,94.70
2018-03-07T09:02:53.918Z,90.28
2018-03-07T09:05:23.699Z,94.57
2018-03-07T09:07:53.232Z,95.15
2018-03-07T09:10:23.000Z,84.00
2018-03-07T09:12:53.577Z,85.20
2018-03-07T09:15:23.392Z,91.00
2018-03-07T09:17:53.184Z,89.55
2018-03-07T09:20:23.014Z,87.12
2018-03-07T09:22:52.786Z,86.35
2018-03-07T09:25:23.348Z,85.68
2018-03-07T09:27:53.161Z,82.43
2018-03-07T09:30:22.973Z,70.15
2018-03-07T09:32:52.741Z,78.70
2018-03-07T09:35:22.773Z,78.85
2018-03-07T09:37:53.422Z,76.37
2018-03-07T09:40:23.228Z,79.40
2018-03-07T09:42:53.030Z,76.55
2018-03-07T09:45:23.609Z,78.40
2018-03-07T09:47:53.378Z,77.43
2018-03-07T09:50:23.941Z,77.80
2018-03-07T09:52:53.708Z,80.72
2018-03-07T09:55:23.508Z,79.55
2018-03-07T09:57:53.091Z,74.75
2018-03-07T10:00:22.893Z,73.22
2018-03-07T10:02:52.733Z,71.82
2018-03-07T10:05:22.510Z,73.57
2018-03-07T10:07:52.306Z,66.65
2018-03-07T10:10:22.110Z,68.65
2018-03-07T10:12:52.682Z,69.70
2018-03-07T10:15:22.442Z,61.17
2018-03-07T10:17:53.029Z,57.42
2018-03-07T10:20:22.841Z,66.50
2018-03-07T10:22:52.698Z,63.87
2018-03-07T10:25:22.670Z,67.35
2018-03-07T10:27:52.437Z,58.65
2018-03-07T10:30:23.013Z,59.35
2018-03-07T10:32:52.787Z,53.17
2018-03-07T10:35:22.757Z,51.13
2018-03-07T10:37:52.520Z,53.70
2018-03-07T10:40:22.340Z,49.15
2018-03-07T10:42:52.106Z,50.45
2018-03-07T10:45:21.913Z,51.05
2018-03-07T10:47:51.707Z,50.70
2018-03-07T10:50:21.482Z,55.15
2018-03-07T10:52:51.266Z,47.78
2018-03-07T10:55:21.810Z,52.47
2018-03-07T10:57:52.380Z,54.17
2018-03-07T11:00:27.673Z,48.53
2018-03-07T11:02:58.241Z,42.45
2018-03-07T11:05:28.018Z,45.80
2018-03-07T11:07:57.850Z,50.08
2018-03-07T11:10:27.638Z,46.28
2018-03-07T11:12:58.204Z,43.20
2018-03-07T11:15:27.973Z,41.33
2018-03-07T11:17:57.811Z,46.75
2018-03-07T11:20:27.579Z,45.53
2018-03-07T11:22:57.378Z,39.33
2018-03-07T11:25:27.182Z,42.05
2018-03-07T11:27:56.953Z,40.92
2018-03-07T11:30:27.520Z,49.25
2018-03-07T11:32:57.291Z,39.63
2018-03-07T11:35:27.402Z,40.47
2018-03-07T11:37:57.972Z,41.42
2018-03-07T11:40:27.808Z,37.03
2018-03-07T11:42:57.569Z,42.00
2018-03-07T11:45:27.377Z,44.70
2018-03-07T11:47:58.316Z,37.78
2018-03-07T11:50:28.887Z,38.70
2018-03-07T11:52:58.637Z,42.17
2018-03-07T11:55:29.421Z,39.95
2018-03-07T11:57:59.184Z,42.10
2018-03-07T12:00:28.965Z,42.47
2018-03-07T12:02:58.791Z,41.80
2018-03-07T12:05:28.561Z,44.63
2018-03-07T12:07:58.380Z,42.45
2018-03-07T12:10:28.154Z,39.08
2018-03-07T12:12:57.969Z,37.95
2018-03-07T12:15:28.626Z,39.70
2018-03-07T12:17:58.410Z,42.80
2018-03-07T12:20:28.286Z,43.95
2018-03-07T12:22:58.061Z,40.67
2018-03-07T12:25:27.854Z,43.22
2018-03-07T12:27:58.418Z,43.03
2018-03-07T12:30:28.219Z,45.95
2018-03-07T12:32:57.990Z,43.90
2018-03-07T12:35:28.197Z,39.90
2018-03-07T12:37:58.011Z,50.38
2018-03-07T12:40:27.777Z,42.65
2018-03-07T12:42:57.568Z,43.97
2018-03-07T12:45:28.130Z,44.50
2018-03-07T12:47:57.633Z,47.22
2018-03-07T12:50:27.448Z,52.28
2018-03-07T12:52:57.270Z,53.20
2018-03-07T12:55:27.070Z,55.12
2018-03-07T12:57:56.870Z,52.15
2018-03-07T13:00:26.645Z,55.80
2018-03-07T13:02:56.438Z,57.92
2018-03-07T13:05:26.194Z,63.50
2018-03-07T13:07:56.774Z,67.68
2018-03-07T13:10:26.591Z,68.90
2018-03-07T13:12:56.409Z,65.87
2018-03-07T13:15:26.177Z,61.63
2018-03-07T13:17:56.005Z,68.12
2018-03-07T13:20:25.816Z,64.40
2018-03-07T13:22:55.581Z,68.20
2018-03-07T13:25:26.148Z,72.55
2018-03-07T13:27:55.915Z,75.35
2018-03-07T13:30:26.530Z,74.70
2018-03-07T13:32:56.325Z,71.80
2018-03-07T13:35:26.113Z,73.03
2018-03-07T13:37:55.902Z,75.65
2018-03-07T13:40:26.585Z,69.62
2018-03-07T13:42:56.401Z,78.25
2018-03-07T13:45:26.314Z,80.30
2018-03-07T13:47:56.132Z,71.10
2018-03-07T13:50:25.943Z,81.82
2018-03-07T13:52:55.843Z,54.75
2018-03-07T13:55:25.839Z,71.00
2018-03-07T13:57:55.697Z,72.78
2018-03-07T14:00:25.477Z,86.63
2018-03-07T14:02:55.309Z,75.20
2018-03-07T14:05:25.163Z,81.93
2018-03-07T14:07:55.203Z,77.28
2018-03-07T14:10:25.787Z,78.80
2018-03-07T14:12:55.584Z,71.20
2018-03-07T14:15:25.391Z,71.55
2018-03-07T14:17:55.228Z,71.37
2018-03-07T14:20:25.061Z,75.78
2018-03-07T14:22:54.948Z,71.43
2018-03-07T14:25:24.842Z,69.50
2018-03-07T14:27:54.689Z,73.55
2018-03-07T14:30:24.493Z,72.70
2018-03-07T14:32:54.334Z,63.90
2018-03-07T14:35:24.941Z,64.97
2018-03-07T14:37:54.714Z,69.20
2018-03-07T14:40:24.525Z,71.45
2018-03-07T14:42:54.298Z,67.05
2018-03-07T14:45:24.116Z,64.78
2018-03-07T14:47:54.664Z,70.85
2018-03-07T14:50:25.221Z,72.03
2018-03-07T14:52:54.873Z,75.95
2018-03-07T14:55:24.653Z,80.32
2018-03-07T14:57:54.467Z,77.40
2018-03-07T15:00:24.235Z,77.47
2018-03-07T15:02:55.029Z,76.37
2018-03-07T15:05:24.819Z,73.43
2018-03-07T15:07:54.629Z,65.82
2018-03-07T15:10:24.713Z,76.28
2018-03-07T15:12:54.705Z,71.28
2018-03-07T15:15:24.533Z,77.53
2018-03-07T15:17:54.310Z,78.95
2018-03-07T15:20:24.117Z,76.62
2018-03-07T15:22:53.759Z,68.45
2018-03-07T15:25:24.338Z,78.68
2018-03-07T15:27:54.134Z,70.40
2018-03-07T15:30:23.915Z,75.00
2018-03-07T15:32:53.729Z,72.53
2018-03-07T15:35:23.511Z,84.57
2018-03-07T15:37:53.308Z,79.50
2018-03-07T15:40:23.073Z,77.75
2018-03-07T15:42:53.702Z,74.65
2018-03-07T15:45:23.468Z,80.82
2018-03-07T15:47:53.274Z,80.22
2018-03-07T15:50:23.066Z,73.50
2018-03-07T15:52:52.870Z,78.43
2018-03-07T15:55:23.425Z,84.75
2018-03-07T15:57:53.254Z,83.30
2018-03-07T16:00:23.061Z,82.12
2018-03-07T16:02:53.059Z,85.60
2018-03-07T16:05:22.843Z,78.07
2018-03-07T16:07:53.498Z,79.22
2018-03-07T16:10:23.533Z,85.50
2018-03-07T16:12:53.525Z,85.93
2018-03-07T16:15:23.308Z,71.65
2018-03-07T16:17:53.612Z,72.95
2018-03-07T16:20:23.417Z,77.60
2018-03-07T16:22:53.230Z,74.97
2018-03-07T16:25:23.033Z,68.65
2018-03-07T16:27:52.929Z,64.95
2018-03-07T16:30:22.699Z,77.18
2018-03-07T16:32:53.476Z,75.72
2018-03-07T16:35:24.062Z,64.03
2018-03-07T16:37:54.146Z,74.65
2018-03-07T16:40:24.031Z,71.03
2018-03-07T16:42:53.839Z,77.47
2018-03-07T16:45:24.381Z,86.00
2018-03-07T16:47:54.179Z,79.43
2018-03-07T16:50:26.018Z,87.32
2018-03-07T16:52:56.795Z,90.25
2018-03-07T16:55:27.829Z,89.97
2018-03-07T16:57:58.803Z,95.80
2018-03-07T17:00:29.306Z,92.60
2018-03-07T17:02:59.126Z,90.50
2018-03-07T17:05:28.665Z,77.35
2018-03-07T17:07:58.480Z,86.43
2018-03-07T17:10:28.341Z,86.50
2018-03-07T17:12:58.202Z,180.85
2018-03-07T17:15:28.044Z,97.00
2018-03-07T17:17:58.593Z,88.32
2018-03-07T17:20:28.458Z,90.65
2018-03-07T17:22:58.608Z,95.12
2018-03-07T17:25:29.120Z,103.10
2018-03-07T17:27:58.952Z,97.80
2018-03-07T17:30:28.772Z,105.10
2018-03-07T17:32:59.361Z,102.72
2018-03-07T17:35:29.163Z,99.87
2018-03-07T17:37:59.213Z,103.50
2018-03-07T17:40:29.682Z,103.03
2018-03-07T17:42:59.515Z,120.47
2018-03-07T17:45:29.723Z,106.78
2018-03-07T17:47:59.546Z,100.18
2018-03-07T17:50:29.339Z,117.15
2018-03-07T17:53:00.605Z,77.15
2018-03-07T17:55:31.411Z,98.70
2018-03-07T17:58:01.395Z,100.43
2018-03-07T18:00:31.222Z,118.62
2018-03-07T18:03:01.839Z,99.70
2018-03-07T18:05:31.876Z,104.80
2018-03-07T18:08:01.435Z,97.35
2018-03-07T18:10:31.645Z,104.32
2018-03-07T18:13:01.833Z,86.53
2018-03-07T18:15:32.402Z,95.85
2018-03-07T18:18:02.329Z,92.88
2018-03-07T18:20:32.155Z,90.62
2018-03-07T18:23:01.925Z,96.40
2018-03-07T18:25:31.725Z,88.53
2018-03-07T18:28:02.279Z,93.57
2018-03-07T18:30:32.125Z,98.20
2018-03-07T18:33:01.954Z,231.25
2018-03-07T18:35:34.044Z,95.07
2018-03-07T18:38:03.889Z,91.97
2018-03-07T18:40:33.704Z,87.93
2018-03-07T18:43:03.596Z,91.60
2018-03-07T18:45:34.146Z,81.45
2018-03-07T18:48:03.964Z,80.65
2018-03-07T18:50:33.754Z,88.93
2018-03-07T18:53:03.593Z,87.75
2018-03-07T18:55:33.384Z,84.35
2018-03-07T18:58:03.210Z,90.05
2018-03-07T19:00:33.217Z,85.53
2018-03-07T19:03:03.044Z,73.37
2018-03-07T19:05:35.803Z,79.20
2018-03-07T19:08:06.554Z,68.25
2018-03-07T19:10:36.328Z,82.68
2018-03-07T19:13:06.129Z,82.07
2018-03-07T19:15:35.918Z,82.50
2018-03-07T19:18:05.447Z,75.07
2018-03-07T19:20:35.318Z,76.62
2018-03-07T19:23:05.169Z,78.32
2018-03-07T19:25:35.045Z,73.78
2018-03-07T19:28:04.844Z,86.22
2018-03-07T19:30:34.408Z,91.05
2018-03-07T19:33:04.189Z,80.28
2018-03-07T19:35:34.018Z,87.55
2018-03-07T19:38:03.940Z,83.65
2018-03-07T19:40:33.950Z,92.70
2018-03-07T19:43:03.824Z,92.62
2018-03-07T19:45:33.671Z,101.28
2018-03-07T19:48:03.460Z,92.25
2018-03-07T19:50:33.326Z,93.05
2018-03-07T19:53:03.163Z,94.97
2018-03-07T19:55:33.719Z,92.43
2018-03-07T19:58:03.539Z,103.45
2018-03-07T20:00:33.348Z,107.32
2018-03-07T20:03:03.430Z,102.45
2018-03-07T20:05:34.076Z,105.32
2018-03-07T20:08:04.927Z,111.47
2018-03-07T20:10:34.773Z,114.20
2018-03-07T20:13:04.333Z,120.20
2018-03-07T20:15:34.175Z,108.03
2018-03-07T20:18:04.062Z,104.30
2018-03-07T20:20:33.898Z,106.70
2018-03-07T20:23:03.697Z,109.30
2018-03-07T20:25:33.848Z,89.97
2018-03-07T20:28:04.455Z,82.53
2018-03-07T20:30:34.395Z,99.85
2018-03-07T20:33:04.250Z,104.12
2018-03-07T20:35:34.829Z,118.18
2018-03-07T20:38:04.822Z,91.87
2018-03-07T20:40:34.597Z,93.20
2018-03-07T20:43:04.416Z,97.15
2018-03-07T20:45:34.961Z,104.87
2018-03-07T20:48:04.450Z,93.78
2018-03-07T20:50:34.258Z,79.53
2018-03-07T20:53:04.088Z,99.32
2018-03-07T20:55:34.743Z,105.57
2018-03-07T20:58:04.546Z,109.25
2018-03-07T21:00:34.396Z,100.32
2018-03-07T21:03:04.206Z,103.30
2018-03-07T21:05:34.014Z,106.72
2018-03-07T21:08:03.824Z,114.15
2018-03-07T21:10:33.634Z,101.57
2018-03-07T21:13:03.423Z,108.65
2018-03-07T21:15:33.255Z,115.25
2018-03-07T21:18:03.053Z,118.65
2018-03-07T21:20:32.882Z,124.47
2018-03-07T21:23:02.693Z,108.10
2018-03-07T21:25:32.526Z,116.15
2018-03-07T21:28:02.317Z,104.50
2018-03-07T21:30:32.143Z,112.55
2018-03-07T21:33:01.947Z,110.12
2018-03-07T21:35:31.782Z,115.20
2018-03-07T21:38:01.580Z,110.30
2018-03-07T21:40:31.384Z,118.40
2018-03-07T21:43:01.181Z,119.97
2018-03-07T21:45:31.407Z,118.13
2018-03-07T21:48:01.229Z,124.50
2018-03-07T21:50:31.052Z,122.13
2018-03-07T21:53:00.878Z,123.47
2018-03-07T21:55:30.725Z,124.32
2018-03-07T21:58:01.398Z,117.22
2018-03-07T22:00:31.167Z,127.32
2018-03-07T22:03:00.990Z,116.37
2018-03-07T22:05:30.574Z,129.87
2018-03-07T22:08:01.177Z,124.45
2018-03-07T22:10:30.987Z,130.20
2018-03-07T22:13:00.809Z,125.05
2018-03-07T22:15:30.617Z,138.57
2018-03-07T22:18:00.392Z,137.10
2018-03-07T22:20:30.961Z,139.15
2018-03-07T22:23:00.793Z,134.87
2018-03-07T22:25:30.566Z,142.45
2018-03-07T22:28:01.110Z,131.05
2018-03-07T22:30:30.722Z,128.48
2018-03-07T22:33:00.746Z,126.40
2018-03-07T22:35:31.589Z,133.63
2018-03-07T22:38:01.407Z,145.18
2018-03-07T22:40:31.242Z,140.90
2018-03-07T22:43:01.102Z,140.27
2018-03-07T22:45:31.011Z,143.45
2018-03-07T22:48:00.807Z,151.35
2018-03-07T22:50:31.409Z,144.20
2018-03-07T22:53:01.299Z,148.00
2018-03-07T22:55:31.077Z,146.20
2018-03-07T22:58:00.901Z,134.27
2018-03-07T23:00:36.440Z,146.62
2018-03-07T23:03:05.973Z,146.50
2018-03-07T23:05:35.769Z,145.10
2018-03-07T23:08:05.596Z,147.98
2018-03-07T23:10:35.396Z,153.55
2018-03-07T23:13:05.244Z,145.40
2018-03-07T23:15:35.010Z,140.37
2018-03-07T23:18:04.819Z,157.85
2018-03-07T23:20:34.590Z,161.68
2018-03-07T23:23:04.418Z,161.23
2018-03-07T23:25:34.986Z,155.52
2018-03-07T23:28:04.466Z,153.98
2018-03-07T23:30:35.039Z,147.98
2018-03-07T23:33:04.805Z,145.73
2018-03-07T23:35:34.360Z,156.50
2018-03-07T23:38:04.133Z,150.80
2018-03-07T23:40:33.973Z,155.50
2018-03-07T23:43:03.947Z,144.68
2018-03-07T23:45:34.557Z,154.70
2018-03-07T23:48:04.393Z,147.98
2018-03-07T23:50:34.386Z,164.85
2018-03-07T23:53:04.154Z,158.43
2018-03-07T23:55:33.962Z,160.75
2018-03-07T23:58:03.728Z,158.87
